createdAt,value
2022-09-18T00:01:59.528Z,998.57
2022-09-18T00:06:59.323Z,998.42
2022-09-18T00:11:59.375Z,998.54
2022-09-18T00:16:59.172Z,998.63
2022-09-18T00:21:59.189Z,998.62
2022-09-18T00:26:59.091Z,998.55
2022-09-18T00:31:58.992Z,998.49
2022-09-18T00:36:59.003Z,998.59
2022-09-18T00:41:58.964Z,998.54
2022-09-18T00:46:59.031Z,998.54
2022-09-18T00:51:58.883Z,998.48
2022-09-18T00:56:58.762Z,998.58
2022-09-18T01:01:58.890Z,998.62
2022-09-18T01:06:58.653Z,998.58
2022-09-18T01:11:58.556Z,998.55
2022-09-18T01:16:58.508Z,998.54
2022-09-18T01:21:58.587Z,998.56
2022-09-18T01:26:58.490Z,998.50
2022-09-18T01:31:58.412Z,998.54
2022-09-18T01:36:59.439Z,998.55
2022-09-18T01:41:58.941Z,998.42
2022-09-18T01:46:58.603Z,998.43
2022-09-18T01:52:03.774Z,998.33
2022-09-18T01:57:00.382Z,998.38
2022-09-18T02:01:58.157Z,998.33
2022-09-18T02:06:57.972Z,998.28
2022-09-18T02:11:57.952Z,998.27
2022-09-18T02:16:57.895Z,998.27
2022-09-18T02:21:57.864Z,998.29
2022-09-18T02:26:57.945Z,998.35
2022-09-18T02:31:57.692Z,998.28
2022-09-18T02:36:57.619Z,998.31
2022-09-18T02:41:57.623Z,998.21
2022-09-18T02:46:57.673Z,998.11
2022-09-18T02:51:57.603Z,998.16
2022-09-18T02:56:57.475Z,998.15
2022-09-18T03:01:57.488Z,998.17
2022-09-18T03:06:57.289Z,998.11
2022-09-18T03:11:57.342Z,998.14
2022-09-18T03:16:57.276Z,998.06
2022-09-18T03:21:57.248Z,998.12
2022-09-18T03:27:00.758Z,998.12
2022-09-18T03:32:02.300Z,998.10
2022-09-18T03:36:57.561Z,998.00
2022-09-18T03:41:59.280Z,998.03
2022-09-18T03:46:56.997Z,998.09
2022-09-18T03:51:58.331Z,997.99
2022-09-18T03:56:59.437Z,998.00
2022-09-18T04:01:56.729Z,997.94
2022-09-18T04:06:56.612Z,997.93
2022-09-18T04:11:56.568Z,997.95
2022-09-18T04:16:56.524Z,998.08
2022-09-18T04:21:56.591Z,998.01
2022-09-18T04:26:57.599Z,998.00
2022-09-18T04:31:59.901Z,997.98
2022-09-18T04:36:56.416Z,998.03
2022-09-18T04:41:56.383Z,997.96
2022-09-18T04:46:56.347Z,997.98
2022-09-18T04:51:56.383Z,997.93
2022-09-18T04:56:56.178Z,998.01
2022-09-18T05:01:56.145Z,998.01
2022-09-18T05:06:56.053Z,997.99
2022-09-18T05:11:55.913Z,998.02
2022-09-18T05:16:56.031Z,998.02
2022-09-18T05:21:55.860Z,997.98
2022-09-18T05:26:55.784Z,998.01
2022-09-18T05:31:55.734Z,998.04
2022-09-18T05:36:55.540Z,997.96
2022-09-18T05:41:55.541Z,998.00
2022-09-18T05:46:55.571Z,998.07
2022-09-18T05:51:55.427Z,998.05
2022-09-18T05:56:55.406Z,998.00
2022-09-18T06:01:55.308Z,997.94
2022-09-18T06:06:55.237Z,997.98
2022-09-18T06:11:55.490Z,997.94
2022-09-18T06:16:55.175Z,998.04
2022-09-18T06:22:03.953Z,998.04
2022-09-18T06:26:55.036Z,998.06
2022-09-18T06:31:54.979Z,998.05
2022-09-18T06:36:54.955Z,998.02
2022-09-18T06:41:54.824Z,997.99
2022-09-18T06:46:54.943Z,998.03
2022-09-18T06:51:54.803Z,998.02
2022-09-18T06:56:54.703Z,998.00
2022-09-18T07:01:54.823Z,998.09
2022-09-18T07:06:54.790Z,998.00
2022-09-18T07:11:54.671Z,998.08
2022-09-18T07:16:54.553Z,998.09
2022-09-18T07:21:55.661Z,997.97
2022-09-18T07:26:55.964Z,997.89
2022-09-18T07:32:05.617Z,997.93
2022-09-18T07:36:54.264Z,997.82
2022-09-18T07:41:54.177Z,997.81
2022-09-18T07:46:54.238Z,997.81
2022-09-18T07:51:54.177Z,997.77
2022-09-18T07:56:54.762Z,997.75
2022-09-18T08:01:54.164Z,997.69
2022-09-18T08:06:54.042Z,997.69
2022-09-18T08:11:53.897Z,997.71
2022-09-18T08:16:53.933Z,997.81
2022-09-18T08:21:53.743Z,997.83
2022-09-18T08:26:53.835Z,997.71
2022-09-18T08:31:53.787Z,997.77
2022-09-18T08:36:53.643Z,997.89
2022-09-18T08:41:54.600Z,997.81
2022-09-18T08:46:54.675Z,997.76
2022-09-18T08:51:53.575Z,997.70
2022-09-18T08:56:54.397Z,997.64
2022-09-18T09:01:53.355Z,997.70
2022-09-18T09:06:53.239Z,997.69
2022-09-18T09:11:53.353Z,997.49
2022-09-18T09:16:53.296Z,997.50
2022-09-18T09:21:53.095Z,997.45
2022-09-18T09:26:53.060Z,997.35
2022-09-18T09:31:53.059Z,997.31
2022-09-18T09:36:52.899Z,997.22
2022-09-18T09:41:52.974Z,997.24
2022-09-18T09:46:53.099Z,997.29
2022-09-18T09:51:52.873Z,997.24
2022-09-18T09:56:52.795Z,997.23
2022-09-18T10:01:53.710Z,997.26
2022-09-18T10:06:52.633Z,997.20
2022-09-18T10:11:57.039Z,997.14
2022-09-18T10:16:54.771Z,997.11
2022-09-18T10:21:53.976Z,997.14
2022-09-18T10:26:52.426Z,997.10
2022-09-18T10:31:54.669Z,997.11
2022-09-18T10:36:52.275Z,997.14
2022-09-18T10:41:52.199Z,997.19
2022-09-18T10:46:52.383Z,997.46
2022-09-18T10:51:52.147Z,997.40
2022-09-18T10:56:52.043Z,997.33
2022-09-18T11:01:52.032Z,997.38
2022-09-18T11:06:51.943Z,997.37
2022-09-18T11:11:52.164Z,997.38
2022-09-18T11:16:51.837Z,997.28
2022-09-18T11:21:51.919Z,997.33
2022-09-18T11:26:51.936Z,997.29
2022-09-18T11:31:51.845Z,997.25
2022-09-18T11:36:52.255Z,997.08
2022-09-18T11:41:52.531Z,997.24
2022-09-18T11:46:51.610Z,997.21
2022-09-18T11:51:51.476Z,997.12
2022-09-18T11:56:55.779Z,997.18
2022-09-18T12:01:52.497Z,997.11
2022-09-18T12:06:51.353Z,997.15
2022-09-18T12:11:50.541Z,997.14
2022-09-18T12:16:49.847Z,997.14
2022-09-18T12:21:49.768Z,997.16
2022-09-18T12:26:49.775Z,997.07
2022-09-18T12:31:49.746Z,997.09
2022-09-18T12:36:49.597Z,997.09
2022-09-18T12:41:50.242Z,997.02
2022-09-18T12:46:50.350Z,997.04
2022-09-18T12:51:50.156Z,997.11
2022-09-18T12:56:50.023Z,997.18
2022-09-18T13:01:55.084Z,997.10
2022-09-18T13:06:50.249Z,997.05
2022-09-18T13:11:51.993Z,997.09
2022-09-18T13:16:53.019Z,997.07
2022-09-18T13:21:50.758Z,997.01
2022-09-18T13:26:50.458Z,996.96
2022-09-18T13:31:51.570Z,997.09
2022-09-18T13:36:50.320Z,997.22
2022-09-18T13:41:51.375Z,997.08
2022-09-18T13:46:50.235Z,997.29
2022-09-18T13:51:50.067Z,997.26
2022-09-18T13:56:50.457Z,997.16
2022-09-18T14:01:49.984Z,997.17
2022-09-18T14:06:49.948Z,997.02
2022-09-18T14:11:49.842Z,997.42
2022-09-18T14:16:49.760Z,997.38
2022-09-18T14:21:49.763Z,997.39
2022-09-18T14:26:49.628Z,997.30
2022-09-18T14:31:49.649Z,997.40
2022-09-18T14:36:49.509Z,997.41
2022-09-18T14:41:49.497Z,997.39
2022-09-18T16:48:28.894Z,997.67
2022-09-18T16:53:29.679Z,997.65
2022-09-18T17:03:43.652Z,997.80
2022-09-18T17:27:13.536Z,997.81
2022-09-18T17:32:13.636Z,998.00
2022-09-18T17:37:14.822Z,997.91
2022-09-18T17:42:13.465Z,997.85
2022-09-18T17:47:13.187Z,997.66
2022-09-18T17:52:13.102Z,997.53
2022-09-18T17:57:13.182Z,997.39
2022-09-18T18:02:13.106Z,997.42
2022-09-18T18:07:13.033Z,997.35
2022-09-18T18:12:13.231Z,997.56
2022-09-18T18:17:12.880Z,997.64
2022-09-18T18:22:13.906Z,997.63
2022-09-18T18:27:13.776Z,997.72
2022-09-18T18:32:12.686Z,997.79
2022-09-18T18:37:21.744Z,997.83
2022-09-18T18:42:12.545Z,997.95
2022-09-18T18:47:12.962Z,998.12
2022-09-18T18:52:12.834Z,998.07
2022-09-18T18:57:12.440Z,998.12
2022-09-18T19:02:12.433Z,998.11
2022-09-18T19:07:13.165Z,998.14
2022-09-18T19:12:12.630Z,998.22
2022-09-18T19:17:12.331Z,998.39
2022-09-18T19:22:12.184Z,998.39
2022-09-18T19:27:13.627Z,998.36
2022-09-18T19:32:12.060Z,998.38
2022-09-18T19:37:14.140Z,998.40
2022-09-18T19:42:28.608Z,998.43
2022-09-18T19:47:14.071Z,998.42
2022-09-18T19:52:19.498Z,998.42
2022-09-18T19:57:12.129Z,998.38
2022-09-18T20:02:12.203Z,998.48
2022-09-18T20:07:12.000Z,998.67
2022-09-18T20:12:11.617Z,998.75
2022-09-18T20:17:11.508Z,998.73
2022-09-18T20:22:12.016Z,998.78
2022-09-18T20:27:11.740Z,998.71
2022-09-18T20:32:12.316Z,998.76
2022-09-18T20:37:11.611Z,998.77
2022-09-18T20:42:11.311Z,998.91
2022-09-18T20:47:11.369Z,998.90
2022-09-18T20:52:14.268Z,998.86
2022-09-18T20:57:11.210Z,998.92
2022-09-18T21:02:13.315Z,998.92
2022-09-18T21:07:12.363Z,998.95
2022-09-18T21:12:11.087Z,999.03
2022-09-18T21:17:10.875Z,998.99
2022-09-18T21:22:10.935Z,999.04
2022-09-18T21:27:11.021Z,999.04
2022-09-18T21:32:10.733Z,998.95
2022-09-18T21:37:12.176Z,999.08
2022-09-18T21:42:10.730Z,999.08
2022-09-18T21:47:10.651Z,998.94
2022-09-18T21:52:10.709Z,999.13
2022-09-18T21:57:11.289Z,999.08
2022-09-18T22:02:11.570Z,999.01
2022-09-18T22:07:10.421Z,999.19
2022-09-18T22:12:10.318Z,999.21
2022-09-18T22:17:11.391Z,999.21
2022-09-18T22:22:10.199Z,999.37
2022-09-18T22:27:10.125Z,999.30
2022-09-18T22:32:10.068Z,999.39
2022-09-18T22:37:10.310Z,999.36
2022-09-18T22:42:10.444Z,999.42
2022-09-18T22:47:09.924Z,999.51
2022-09-18T22:52:09.901Z,999.64
2022-09-18T22:57:13.536Z,999.67
2022-09-18T23:02:12.138Z,999.72
2022-09-18T23:07:09.984Z,999.59
2022-09-18T23:12:09.853Z,999.63
2022-09-18T23:17:19.309Z,999.74
2022-09-18T23:22:09.918Z,999.81
2022-09-18T23:27:09.460Z,999.76
2022-09-18T23:32:09.807Z,999.76
2022-09-18T23:37:09.546Z,999.79
2022-09-18T23:42:09.343Z,999.82
2022-09-18T23:47:10.353Z,999.85
2022-09-18T23:52:09.333Z,999.88
2022-09-18T23:57:09.202Z,999.96
